createdAt,value
2019-03-23T00:00:42.306Z,0.00
2019-03-23T00:01:42.273Z,0.00
2019-03-23T00:02:42.218Z,0.00
2019-03-23T00:03:42.213Z,0.00
2019-03-23T00:04:42.194Z,0.00
2019-03-23T00:05:42.185Z,0.00
2019-03-23T00:06:42.173Z,0.00
2019-03-23T00:07:42.207Z,0.00
2019-03-23T00:08:42.151Z,0.00
2019-03-23T00:09:42.146Z,0.00
2019-03-23T00:10:42.128Z,0.00
2019-03-23T00:11:42.169Z,0.00
2019-03-23T00:12:42.109Z,0.00
2019-03-23T00:13:42.140Z,0.00
2019-03-23T00:14:42.090Z,0.00
2019-03-23T00:15:42.072Z,0.00
2019-03-23T00:16:42.066Z,0.00
2019-03-23T00:17:42.057Z,0.00
2019-03-23T00:18:42.050Z,0.00
2019-03-23T00:19:42.072Z,0.00
2019-03-23T00:20:42.022Z,0.00
2019-03-23T00:21:42.007Z,0.00
2019-03-23T00:22:42.036Z,0.00
2019-03-23T00:23:41.989Z,0.00
2019-03-23T00:24:41.973Z,0.00
2019-03-23T00:25:41.961Z,0.00
2019-03-23T00:26:41.954Z,0.00
2019-03-23T00:27:41.977Z,0.00
2019-03-23T00:28:41.927Z,0.00
2019-03-23T00:29:41.918Z,0.00
2019-03-23T00:30:41.904Z,0.00
2019-03-23T00:31:41.951Z,0.00
2019-03-23T00:32:41.886Z,0.00
2019-03-23T00:33:41.874Z,0.00
2019-03-23T00:34:41.860Z,0.00
2019-03-23T00:35:41.850Z,0.00
2019-03-23T00:36:42.048Z,0.00
2019-03-23T00:37:41.869Z,0.00
2019-03-23T00:38:41.822Z,0.00
2019-03-23T00:39:41.803Z,0.00
2019-03-23T00:40:41.793Z,0.00
2019-03-23T00:41:41.783Z,0.00
2019-03-23T00:42:41.815Z,0.00
2019-03-23T00:43:41.768Z,0.00
2019-03-23T00:44:41.759Z,0.00
2019-03-23T00:45:41.744Z,0.00
2019-03-23T00:46:41.780Z,0.00
2019-03-23T00:47:41.725Z,0.00
2019-03-23T00:48:41.706Z,0.00
2019-03-23T00:49:41.741Z,0.00
2019-03-23T00:50:41.683Z,0.00
2019-03-23T00:51:41.671Z,0.00
2019-03-23T00:52:41.663Z,0.00
2019-03-23T00:53:41.654Z,0.00
2019-03-23T00:54:41.636Z,0.00
2019-03-23T00:55:41.914Z,0.00
2019-03-23T00:56:41.617Z,0.00
2019-03-23T00:57:41.606Z,0.00
2019-03-23T00:58:41.594Z,0.00
2019-03-23T00:59:41.634Z,0.00
2019-03-23T01:00:41.576Z,0.00
2019-03-23T01:01:41.571Z,0.00
2019-03-23T01:02:42.021Z,0.00
2019-03-23T01:03:41.585Z,0.00
2019-03-23T01:04:41.582Z,0.00
2019-03-23T01:05:41.516Z,0.00
2019-03-23T01:06:51.567Z,0.00
2019-03-23T01:07:42.498Z,0.00
2019-03-23T01:08:41.484Z,0.00
2019-03-23T01:09:41.521Z,0.00
2019-03-23T01:10:41.459Z,0.00
2019-03-23T01:11:41.450Z,0.00
2019-03-23T01:12:41.438Z,0.00
2019-03-23T01:13:41.431Z,0.00
2019-03-23T01:14:41.458Z,0.00
2019-03-23T01:15:41.407Z,0.00
2019-03-23T01:16:41.451Z,0.00
2019-03-23T01:17:41.383Z,0.00
2019-03-23T01:18:41.371Z,0.00
2019-03-23T01:19:41.372Z,0.00
2019-03-23T01:20:49.369Z,0.00
2019-03-23T01:21:42.382Z,0.00
2019-03-23T01:22:41.331Z,0.00
2019-03-23T01:23:41.318Z,0.00
2019-03-23T01:24:41.350Z,0.00
2019-03-23T01:25:41.301Z,0.00
2019-03-23T01:26:41.284Z,0.00
2019-03-23T01:27:41.274Z,0.00
2019-03-23T01:28:41.264Z,0.00
2019-03-23T01:29:41.301Z,0.00
2019-03-23T01:30:41.248Z,0.00
2019-03-23T01:31:41.229Z,0.00
2019-03-23T01:32:41.218Z,0.00
2019-03-23T01:33:41.207Z,0.00
2019-03-23T01:34:41.211Z,0.00
2019-03-23T01:35:41.232Z,0.00
2019-03-23T01:36:41.178Z,0.00
2019-03-23T01:37:41.163Z,0.00
2019-03-23T01:38:41.150Z,0.00
2019-03-23T01:39:41.139Z,0.00
2019-03-23T01:40:41.175Z,0.00
2019-03-23T01:41:41.117Z,0.00
2019-03-23T01:42:41.120Z,0.00
2019-03-23T01:43:41.096Z,0.00
2019-03-23T01:44:41.135Z,0.00
2019-03-23T01:45:41.071Z,0.00
2019-03-23T01:46:41.062Z,0.00
2019-03-23T01:47:41.099Z,0.00
2019-03-23T01:48:41.065Z,0.00
2019-03-23T01:49:41.028Z,0.00
2019-03-23T01:50:41.020Z,0.00
2019-03-23T01:51:41.006Z,0.00
2019-03-23T01:52:40.998Z,0.00
2019-03-23T01:53:41.031Z,0.00
2019-03-23T01:54:40.977Z,0.00
2019-03-23T01:55:40.963Z,0.00
2019-03-23T01:56:40.952Z,0.00
2019-03-23T01:57:40.982Z,0.00
2019-03-23T01:58:40.933Z,0.00
2019-03-23T01:59:40.922Z,0.00
2019-03-23T02:00:40.955Z,0.00
2019-03-23T02:01:40.898Z,0.00
2019-03-23T02:02:40.889Z,0.00
2019-03-23T02:03:40.919Z,0.00
2019-03-23T02:04:40.866Z,0.00
2019-03-23T02:05:40.856Z,0.00
2019-03-23T02:06:40.860Z,0.00
2019-03-23T02:07:40.884Z,0.00
2019-03-23T02:08:40.820Z,0.00
2019-03-23T02:09:40.858Z,0.00
2019-03-23T02:10:41.922Z,0.00
2019-03-23T02:11:40.794Z,0.00
2019-03-23T02:12:40.787Z,0.00
2019-03-23T02:13:40.767Z,0.00
2019-03-23T02:14:40.801Z,0.00
2019-03-23T02:15:40.749Z,0.00
2019-03-23T02:16:40.783Z,0.00
2019-03-23T02:17:40.737Z,0.00
2019-03-23T02:18:40.733Z,0.00
2019-03-23T02:19:40.706Z,0.00
2019-03-23T02:20:40.691Z,0.00
2019-03-23T02:21:40.686Z,0.00
2019-03-23T02:22:40.726Z,0.00
2019-03-23T02:23:40.712Z,0.00
2019-03-23T02:24:40.647Z,0.00
2019-03-23T02:25:40.635Z,0.00
2019-03-23T02:26:40.641Z,0.00
2019-03-23T02:27:40.616Z,0.00
2019-03-23T02:28:40.605Z,0.00
2019-03-23T02:29:40.641Z,0.00
2019-03-23T02:30:40.585Z,0.00
2019-03-23T02:31:40.571Z,0.00
2019-03-23T02:32:40.632Z,0.00
2019-03-23T02:33:40.591Z,0.00
2019-03-23T02:34:40.589Z,0.00
2019-03-23T02:35:40.540Z,0.00
2019-03-23T02:36:40.537Z,0.00
2019-03-23T02:37:40.512Z,0.00
2019-03-23T02:38:40.511Z,0.00
2019-03-23T02:39:40.486Z,0.00
2019-03-23T02:40:40.521Z,0.00
2019-03-23T02:41:40.467Z,0.00
2019-03-23T02:42:40.454Z,0.00
2019-03-23T02:43:40.444Z,0.00
2019-03-23T02:44:40.430Z,0.00
2019-03-23T02:45:40.459Z,0.00
2019-03-23T02:46:40.414Z,0.00
2019-03-23T02:47:40.504Z,0.00
2019-03-23T02:48:40.397Z,0.00
2019-03-23T02:49:40.423Z,0.00
2019-03-23T02:50:40.368Z,0.00
2019-03-23T02:51:40.358Z,0.00
2019-03-23T02:52:40.345Z,0.00
2019-03-23T02:53:40.340Z,0.00
2019-03-23T02:54:40.322Z,0.00
2019-03-23T02:55:40.357Z,0.00
2019-03-23T02:56:40.300Z,0.00
2019-03-23T02:57:40.350Z,0.00
2019-03-23T02:58:40.322Z,0.00
2019-03-23T02:59:40.272Z,0.00
2019-03-23T03:00:40.255Z,0.00
2019-03-23T03:01:40.246Z,0.00
2019-03-23T03:02:40.239Z,0.00
2019-03-23T03:03:40.238Z,0.00
2019-03-23T03:04:40.260Z,0.00
2019-03-23T03:05:40.211Z,0.00
2019-03-23T03:06:40.194Z,0.00
2019-03-23T03:07:42.536Z,0.00
2019-03-23T03:08:40.175Z,0.00
2019-03-23T03:09:40.159Z,0.00
2019-03-23T03:10:40.187Z,0.00
2019-03-23T03:11:40.145Z,0.00
2019-03-23T03:12:40.126Z,0.00
2019-03-23T03:13:40.115Z,0.00
2019-03-23T03:14:40.107Z,0.00
2019-03-23T03:15:40.131Z,0.00
2019-03-23T03:16:40.099Z,0.00
2019-03-23T03:17:40.104Z,0.00
2019-03-23T03:18:40.060Z,0.00
2019-03-23T03:19:40.085Z,0.00
2019-03-23T03:20:40.049Z,0.00
2019-03-23T03:21:40.063Z,0.00
2019-03-23T03:22:40.027Z,0.00
2019-03-23T03:23:40.020Z,0.00
2019-03-23T03:24:39.997Z,0.00
2019-03-23T03:25:39.983Z,0.00
2019-03-23T03:26:40.006Z,0.00
2019-03-23T03:27:39.993Z,0.00
2019-03-23T03:28:39.989Z,0.00
2019-03-23T03:29:39.948Z,0.00
2019-03-23T03:30:39.939Z,0.00
2019-03-23T03:31:39.977Z,0.00
2019-03-23T03:32:39.915Z,0.00
2019-03-23T03:33:39.913Z,0.00
2019-03-23T03:34:39.892Z,0.00
2019-03-23T03:35:39.930Z,0.00
2019-03-23T03:36:39.908Z,0.00
2019-03-23T03:37:39.857Z,0.00
2019-03-23T03:38:39.848Z,0.00
2019-03-23T03:39:39.837Z,0.00
2019-03-23T03:40:39.830Z,0.00
2019-03-23T03:41:39.811Z,0.00
2019-03-23T03:42:39.839Z,0.00
2019-03-23T03:43:39.794Z,0.00
2019-03-23T03:44:39.786Z,0.00
2019-03-23T03:45:39.802Z,0.00
2019-03-23T03:46:39.757Z,0.00
2019-03-23T03:47:41.396Z,0.00
2019-03-23T03:48:39.777Z,0.00
2019-03-23T03:49:39.726Z,0.00
2019-03-23T03:50:39.723Z,0.00
2019-03-23T03:51:39.704Z,0.00
2019-03-23T03:52:39.708Z,0.00
2019-03-23T03:53:39.699Z,0.00
2019-03-23T03:54:39.707Z,0.00
2019-03-23T03:55:39.659Z,0.00
2019-03-23T03:56:39.659Z,0.00
2019-03-23T03:57:39.640Z,0.00
2019-03-23T03:58:39.673Z,0.00
2019-03-23T03:59:39.620Z,0.00
2019-03-23T04:00:39.608Z,0.00
2019-03-23T04:01:39.597Z,0.00
2019-03-23T04:02:39.586Z,0.00
2019-03-23T04:03:39.609Z,0.00
2019-03-23T04:04:39.597Z,0.00
2019-03-23T04:05:39.562Z,0.00
2019-03-23T04:06:39.577Z,0.00
2019-03-23T04:07:39.530Z,0.00
2019-03-23T04:08:39.556Z,0.00
2019-03-23T04:09:40.478Z,0.00
2019-03-23T04:10:39.512Z,0.00
2019-03-23T04:11:39.513Z,0.00
2019-03-23T04:12:39.522Z,0.00
2019-03-23T04:13:39.476Z,0.00
2019-03-23T04:14:39.457Z,0.00
2019-03-23T04:15:39.444Z,0.00
2019-03-23T04:16:39.469Z,0.00
2019-03-23T04:17:39.428Z,0.00
2019-03-23T04:18:39.424Z,0.00
2019-03-23T04:19:39.410Z,0.00
2019-03-23T04:20:39.394Z,0.00
2019-03-23T04:21:39.418Z,0.00
2019-03-23T04:22:39.378Z,0.00
2019-03-23T04:23:39.361Z,0.00
2019-03-23T04:24:39.355Z,0.00
2019-03-23T04:25:39.339Z,0.00
2019-03-23T04:26:39.591Z,0.00
2019-03-23T04:27:39.371Z,0.00
2019-03-23T04:28:39.336Z,0.00
2019-03-23T04:29:39.302Z,0.00
2019-03-23T04:30:39.283Z,0.00
2019-03-23T04:31:39.308Z,0.00
2019-03-23T04:32:39.265Z,0.00
2019-03-23T04:33:39.284Z,0.00
2019-03-23T04:34:39.243Z,0.00
2019-03-23T04:35:39.246Z,0.00
2019-03-23T04:36:39.221Z,0.00
2019-03-23T04:37:39.273Z,0.00
2019-03-23T04:38:39.212Z,0.00
2019-03-23T04:39:39.186Z,0.00
2019-03-23T04:40:39.182Z,0.00
2019-03-23T04:41:39.164Z,0.00
2019-03-23T04:42:39.152Z,0.00
2019-03-23T04:43:39.182Z,0.00
2019-03-23T04:44:39.136Z,0.00
2019-03-23T04:45:39.126Z,0.00
2019-03-23T04:46:39.125Z,0.00
2019-03-23T04:47:39.105Z,0.00
2019-03-23T04:48:39.133Z,0.00
2019-03-23T04:49:39.077Z,0.00
2019-03-23T04:50:39.069Z,0.00
2019-03-23T04:51:39.055Z,0.00
2019-03-23T04:52:39.055Z,0.00
2019-03-23T04:53:39.036Z,0.00
2019-03-23T04:54:39.088Z,0.00
2019-03-23T04:55:39.012Z,0.00
2019-03-23T04:56:39.003Z,0.00
2019-03-23T04:57:38.990Z,0.00
2019-03-23T04:58:38.992Z,0.00
2019-03-23T04:59:38.997Z,0.00
2019-03-23T05:00:39.002Z,0.00
2019-03-23T05:01:38.946Z,0.00
2019-03-23T05:02:38.941Z,0.00
2019-03-23T05:03:38.927Z,0.00
2019-03-23T05:04:38.927Z,4.00
2019-03-23T05:05:38.903Z,0.00
2019-03-23T05:06:38.932Z,0.00
2019-03-23T05:07:38.925Z,4.00
2019-03-23T05:08:38.874Z,4.00
2019-03-23T05:09:38.895Z,0.00
2019-03-23T05:10:38.875Z,0.00
2019-03-23T05:11:38.840Z,8.00
2019-03-23T05:12:38.828Z,4.00
2019-03-23T05:13:38.827Z,8.00
2019-03-23T05:14:38.842Z,8.00
2019-03-23T05:15:38.798Z,4.00
2019-03-23T05:16:38.790Z,12.00
2019-03-23T05:17:38.773Z,8.00
2019-03-23T05:18:38.766Z,12.00
2019-03-23T05:19:38.758Z,16.00
2019-03-23T05:20:38.774Z,16.00
2019-03-23T05:21:38.735Z,16.00
2019-03-23T05:22:38.719Z,20.00
2019-03-23T05:23:38.741Z,20.00
2019-03-23T05:24:38.731Z,24.00
2019-03-23T05:25:38.691Z,20.00
2019-03-23T05:26:38.688Z,24.00
2019-03-23T05:27:38.701Z,24.00
2019-03-23T05:28:38.665Z,28.00
2019-03-23T05:29:38.646Z,28.00
2019-03-23T05:30:38.639Z,32.00
2019-03-23T05:31:38.628Z,40.00
2019-03-23T05:32:38.615Z,48.00
2019-03-23T05:33:38.643Z,56.00
2019-03-23T05:34:38.588Z,60.00
2019-03-23T05:35:38.584Z,68.00
2019-03-23T05:36:38.568Z,72.00
2019-03-23T05:37:38.569Z,76.00
2019-03-23T05:38:44.232Z,84.00
2019-03-23T05:39:39.569Z,88.00
2019-03-23T05:40:38.522Z,88.00
2019-03-23T05:41:38.521Z,92.00
2019-03-23T05:42:38.520Z,104.00
2019-03-23T05:43:38.502Z,108.00
2019-03-23T05:44:38.520Z,112.00
2019-03-23T05:45:38.508Z,120.00
2019-03-23T05:46:38.462Z,136.00
2019-03-23T05:47:38.453Z,132.00
2019-03-23T05:48:38.450Z,144.00
2019-03-23T05:49:38.434Z,144.00
2019-03-23T05:50:38.452Z,144.00
2019-03-23T05:51:38.414Z,152.00
2019-03-23T05:52:38.409Z,152.00
2019-03-23T05:53:38.382Z,152.00
2019-03-23T05:54:38.375Z,160.00
2019-03-23T05:55:38.395Z,168.00
2019-03-23T05:56:38.355Z,172.00
2019-03-23T05:57:38.348Z,172.00
2019-03-23T05:58:38.364Z,188.00
2019-03-23T05:59:38.319Z,196.00
2019-03-23T06:00:38.308Z,208.00
2019-03-23T06:01:38.320Z,224.00
2019-03-23T06:02:38.346Z,212.00
2019-03-23T06:03:38.331Z,232.00
2019-03-23T06:04:38.270Z,272.00
2019-03-23T06:05:38.271Z,268.00
2019-03-23T06:06:38.263Z,284.00
2019-03-23T06:07:38.231Z,292.00
2019-03-23T06:08:38.279Z,312.00
2019-03-23T06:09:38.267Z,328.00
2019-03-23T06:10:38.230Z,332.00
2019-03-23T06:11:38.198Z,360.00
2019-03-23T06:12:38.190Z,368.00
2019-03-23T06:13:38.182Z,392.00
2019-03-23T06:14:38.227Z,412.00
2019-03-23T06:15:38.167Z,440.00
2019-03-23T06:16:38.275Z,432.00
2019-03-23T06:17:38.140Z,452.00
2019-03-23T06:18:38.128Z,452.00
2019-03-23T06:19:38.120Z,476.00
2019-03-23T06:20:38.132Z,496.00
2019-03-23T06:21:38.093Z,496.00
2019-03-23T06:22:38.072Z,492.00
2019-03-23T06:23:38.117Z,516.00
2019-03-23T06:24:38.072Z,536.00
2019-03-23T06:25:38.118Z,548.00
2019-03-23T06:26:38.039Z,592.00
2019-03-23T06:27:38.020Z,652.00
2019-03-23T06:28:38.024Z,680.00
2019-03-23T06:29:37.998Z,696.00
2019-03-23T06:30:38.033Z,700.00
2019-03-23T06:31:37.987Z,728.00
2019-03-23T06:32:38.045Z,684.00
2019-03-23T06:33:37.968Z,676.00
2019-03-23T06:34:37.990Z,660.00
2019-03-23T06:35:37.931Z,660.00
2019-03-23T06:36:37.924Z,676.00
2019-03-23T06:37:37.960Z,732.00
2019-03-23T06:38:37.916Z,752.00
2019-03-23T06:39:37.930Z,780.00
2019-03-23T06:40:37.877Z,772.00
2019-03-23T06:41:37.885Z,780.00
2019-03-23T06:42:37.928Z,808.00
2019-03-23T06:43:37.849Z,784.00
2019-03-23T06:44:37.851Z,800.00
2019-03-23T06:45:37.836Z,784.00
2019-03-23T06:46:37.815Z,796.00
2019-03-23T06:47:37.818Z,800.00
2019-03-23T06:48:37.844Z,860.00
2019-03-23T06:49:37.800Z,844.00
2019-03-23T06:50:37.774Z,880.00
2019-03-23T06:51:37.783Z,876.00
2019-03-23T06:52:37.768Z,976.00
2019-03-23T06:53:37.735Z,1092.00
2019-03-23T06:54:37.791Z,1124.00
2019-03-23T06:55:37.711Z,1124.00
2019-03-23T06:56:37.776Z,1120.00
2019-03-23T06:57:37.736Z,1124.00
2019-03-23T06:58:38.648Z,1084.00
2019-03-23T06:59:37.746Z,1036.00
2019-03-23T07:00:37.691Z,956.00
2019-03-23T07:01:37.659Z,964.00
2019-03-23T07:02:37.675Z,1044.00
2019-03-23T07:03:37.651Z,1120.00
2019-03-23T07:04:37.614Z,1228.00
2019-03-23T07:05:37.644Z,1252.00
2019-03-23T07:06:37.600Z,1232.00
2019-03-23T07:07:37.611Z,1224.00
2019-03-23T07:08:37.639Z,1212.00
2019-03-23T07:09:37.569Z,1240.00
2019-03-23T07:10:37.616Z,1232.00
2019-03-23T07:11:37.594Z,1260.00
2019-03-23T07:12:37.527Z,1272.00
2019-03-23T07:13:37.523Z,1308.00
2019-03-23T07:14:37.503Z,1364.00
2019-03-23T07:15:37.566Z,1376.00
2019-03-23T07:16:37.483Z,1424.00
2019-03-23T07:17:37.496Z,1444.00
2019-03-23T07:18:37.470Z,1428.00
2019-03-23T07:19:37.485Z,1404.00
2019-03-23T07:20:37.452Z,1248.00
2019-03-23T07:21:37.438Z,1144.00
2019-03-23T07:22:37.430Z,1104.00
2019-03-23T07:23:37.435Z,1320.00
2019-03-23T07:24:37.439Z,1476.00
2019-03-23T07:25:37.422Z,1536.00
2019-03-23T07:26:37.381Z,1504.00
2019-03-23T07:27:37.370Z,1452.00
2019-03-23T07:28:37.423Z,1484.00
2019-03-23T07:29:37.374Z,1500.00
2019-03-23T07:30:37.341Z,1624.00
2019-03-23T07:31:37.336Z,1676.00
2019-03-23T07:32:37.356Z,1720.00
2019-03-23T07:33:37.296Z,1752.00
2019-03-23T07:34:37.289Z,1720.00
2019-03-23T07:35:37.289Z,1760.00
2019-03-23T07:36:37.292Z,1764.00
2019-03-23T07:37:37.274Z,1728.00
2019-03-23T07:38:37.275Z,1668.00
2019-03-23T07:39:37.252Z,1720.00
2019-03-23T07:40:37.279Z,1684.00
2019-03-23T07:41:37.221Z,1612.00
2019-03-23T07:42:37.222Z,1596.00
2019-03-23T07:43:37.205Z,1676.00
2019-03-23T07:44:37.239Z,1672.00
2019-03-23T07:45:37.172Z,1740.00
2019-03-23T07:46:37.221Z,1756.00
2019-03-23T07:47:37.157Z,1704.00
2019-03-23T07:48:37.173Z,1688.00
2019-03-23T07:49:37.122Z,1764.00
2019-03-23T07:50:37.190Z,1816.00
2019-03-23T07:51:37.105Z,1844.00
2019-03-23T07:52:37.124Z,1864.00
2019-03-23T07:53:37.140Z,1900.00
2019-03-23T07:54:37.078Z,1948.00
2019-03-23T07:55:37.070Z,1952.00
2019-03-23T07:56:37.053Z,1912.00
2019-03-23T07:57:37.045Z,1888.00
2019-03-23T07:58:37.105Z,1896.00
2019-03-23T07:59:37.045Z,1916.00
2019-03-23T08:00:37.074Z,1992.00
2019-03-23T08:01:37.007Z,2040.00
2019-03-23T08:02:37.016Z,1984.00
2019-03-23T08:03:36.977Z,1960.00
2019-03-23T08:04:36.963Z,1980.00
2019-03-23T08:05:36.954Z,2044.00
2019-03-23T08:06:36.983Z,2184.00
2019-03-23T08:07:36.946Z,2228.00
2019-03-23T08:08:36.914Z,2248.00
2019-03-23T08:09:37.897Z,2200.00
2019-03-23T08:10:36.892Z,2200.00
2019-03-23T08:11:36.949Z,2312.00
2019-03-23T08:12:36.979Z,2368.00
2019-03-23T08:13:36.883Z,2288.00
2019-03-23T08:14:36.858Z,2148.00
2019-03-23T08:15:36.844Z,2268.00
2019-03-23T08:16:36.853Z,2316.00
2019-03-23T08:17:36.831Z,2256.00
2019-03-23T08:18:36.852Z,2204.00
2019-03-23T08:19:36.846Z,2168.00
2019-03-23T08:20:36.821Z,2160.00
2019-03-23T08:21:36.785Z,2148.00
2019-03-23T08:22:36.771Z,2228.00
2019-03-23T08:23:36.774Z,2296.00
2019-03-23T08:24:36.816Z,2304.00
2019-03-23T08:25:36.772Z,2444.00
2019-03-23T08:26:36.752Z,2468.00
2019-03-23T08:27:36.722Z,2464.00
2019-03-23T08:28:36.712Z,2468.00
2019-03-23T08:29:36.684Z,2604.00
2019-03-23T08:30:36.724Z,2588.00
2019-03-23T08:31:36.689Z,2500.00
2019-03-23T08:32:36.699Z,2556.00
2019-03-23T08:33:36.642Z,2632.00
2019-03-23T08:34:36.721Z,2776.00
2019-03-23T08:35:36.658Z,2884.00
2019-03-23T08:36:36.626Z,2860.00
2019-03-23T08:37:36.603Z,2916.00
2019-03-23T08:38:36.594Z,3052.00
2019-03-23T08:39:36.618Z,3088.00
2019-03-23T08:40:36.584Z,2940.00
2019-03-23T08:41:36.593Z,2936.00
2019-03-23T08:42:36.553Z,3052.00
2019-03-23T08:43:36.572Z,3112.00
2019-03-23T08:44:36.530Z,3208.00
2019-03-23T08:45:36.572Z,3212.00
2019-03-23T08:46:36.511Z,3092.00
2019-03-23T08:47:36.491Z,3088.00
2019-03-23T08:48:36.478Z,3104.00
2019-03-23T08:49:36.489Z,3196.00
2019-03-23T08:50:36.501Z,3252.00
2019-03-23T08:51:36.440Z,3428.00
2019-03-23T08:52:36.437Z,3404.00
2019-03-23T08:53:36.433Z,3268.00
2019-03-23T08:54:36.458Z,3188.00
2019-03-23T08:55:36.437Z,3224.00
2019-03-23T08:56:37.459Z,3312.00
2019-03-23T08:57:36.416Z,3392.00
2019-03-23T08:58:36.378Z,3260.00
2019-03-23T08:59:36.399Z,3128.00
2019-03-23T09:00:36.360Z,3252.00
2019-03-23T09:01:36.337Z,3156.00
2019-03-23T09:02:36.325Z,3272.00
2019-03-23T09:03:36.415Z,3160.00
2019-03-23T09:04:36.342Z,2856.00
2019-03-23T09:05:36.331Z,2832.00
2019-03-23T09:06:36.281Z,3040.00
2019-03-23T09:07:36.286Z,3008.00
2019-03-23T09:08:36.288Z,3108.00
2019-03-23T09:09:36.248Z,3244.00
2019-03-23T09:10:36.288Z,3324.00
2019-03-23T09:11:36.226Z,3424.00
2019-03-23T09:12:36.223Z,3376.00
2019-03-23T09:13:40.599Z,3264.00
2019-03-23T09:14:36.212Z,3480.00
2019-03-23T09:15:36.220Z,3408.00
2019-03-23T09:16:36.173Z,3328.00
2019-03-23T09:17:36.193Z,3344.00
2019-03-23T09:18:36.164Z,3388.00
2019-03-23T09:19:36.148Z,3500.00
2019-03-23T09:20:36.127Z,3692.00
2019-03-23T09:21:36.159Z,3836.00
2019-03-23T09:22:36.135Z,3912.00
2019-03-23T09:23:36.111Z,3960.00
2019-03-23T09:24:36.086Z,4040.00
2019-03-23T09:25:36.084Z,3960.00
2019-03-23T09:26:36.079Z,3524.00
2019-03-23T09:27:36.094Z,3164.00
2019-03-23T09:28:36.039Z,3264.00
2019-03-23T09:29:36.032Z,3256.00
2019-03-23T09:30:36.079Z,3308.00
2019-03-23T09:31:36.010Z,3516.00
2019-03-23T09:32:36.010Z,3752.00
2019-03-23T09:33:35.985Z,4188.00
2019-03-23T09:34:35.988Z,4652.00
2019-03-23T09:35:39.359Z,5144.00
2019-03-23T09:36:35.979Z,5464.00
2019-03-23T09:37:38.294Z,5572.00
2019-03-23T09:38:35.935Z,5632.00
2019-03-23T09:39:35.925Z,5572.00
2019-03-23T09:40:35.922Z,5392.00
2019-03-23T09:41:35.965Z,5236.00
2019-03-23T09:42:35.920Z,5368.00
2019-03-23T09:43:35.882Z,5668.00
2019-03-23T09:44:35.917Z,5824.00
2019-03-23T09:45:35.854Z,5756.00
2019-03-23T09:46:35.851Z,5760.00
2019-03-23T09:47:35.829Z,5684.00
2019-03-23T09:48:35.895Z,5572.00
2019-03-23T09:49:35.815Z,5576.00
2019-03-23T09:50:35.810Z,5588.00
2019-03-23T09:51:35.813Z,5588.00
2019-03-23T09:52:35.825Z,5824.00
2019-03-23T09:53:35.799Z,5844.00
2019-03-23T09:54:35.807Z,5540.00
2019-03-23T09:55:35.757Z,5476.00
2019-03-23T09:56:35.725Z,5560.00
2019-03-23T09:57:35.727Z,5712.00
2019-03-23T09:58:35.752Z,5852.00
2019-03-23T09:59:35.709Z,5984.00
2019-03-23T10:00:35.714Z,6200.00
2019-03-23T10:01:35.700Z,6240.00
2019-03-23T10:02:35.672Z,6200.00
2019-03-23T10:03:35.658Z,6168.00
2019-03-23T10:04:35.677Z,6120.00
2019-03-23T10:05:35.633Z,6152.00
2019-03-23T10:06:35.647Z,6372.00
2019-03-23T10:07:35.636Z,6508.00
2019-03-23T10:08:35.598Z,6416.00
2019-03-23T10:09:35.593Z,6308.00
2019-03-23T10:10:35.617Z,6300.00
2019-03-23T10:11:35.582Z,6332.00
2019-03-23T10:12:35.559Z,6392.00
2019-03-23T10:13:35.542Z,6508.00
2019-03-23T10:14:35.582Z,6716.00
2019-03-23T10:15:35.528Z,6924.00
2019-03-23T10:16:35.522Z,7016.00
2019-03-23T10:17:35.492Z,6968.00
2019-03-23T10:18:35.499Z,6924.00
2019-03-23T10:19:35.487Z,6960.00
2019-03-23T10:20:35.500Z,6996.00
2019-03-23T10:21:35.463Z,7108.00
2019-03-23T10:22:35.446Z,7120.00
2019-03-23T10:23:35.461Z,7060.00
2019-03-23T10:24:35.414Z,7000.00
2019-03-23T10:25:35.409Z,7076.00
2019-03-23T10:26:35.444Z,7176.00
2019-03-23T10:27:35.385Z,7312.00
2019-03-23T10:28:35.393Z,7368.00
2019-03-23T10:29:35.355Z,7404.00
2019-03-23T10:30:35.386Z,7540.00
2019-03-23T10:31:35.376Z,7740.00
2019-03-23T10:32:35.356Z,7896.00
2019-03-23T10:33:35.321Z,8052.00
2019-03-23T10:34:35.317Z,8300.00
2019-03-23T10:35:35.313Z,8428.00
2019-03-23T10:36:35.316Z,8360.00
2019-03-23T10:37:35.308Z,8212.00
2019-03-23T10:38:35.263Z,8136.00
2019-03-23T10:39:35.281Z,8268.00
2019-03-23T10:40:35.247Z,8516.00
2019-03-23T10:41:35.264Z,8516.00
2019-03-23T10:42:35.275Z,8296.00
2019-03-23T10:43:35.200Z,8172.00
2019-03-23T10:44:35.194Z,8192.00
2019-03-23T10:45:43.810Z,8320.00
2019-03-23T10:46:37.947Z,8392.00
2019-03-23T10:47:35.209Z,8292.00
2019-03-23T10:48:35.176Z,8228.00
2019-03-23T10:49:35.195Z,8232.00
2019-03-23T10:50:35.133Z,8244.00
2019-03-23T10:51:35.130Z,8280.00
2019-03-23T10:52:35.135Z,8328.00
2019-03-23T10:53:35.129Z,8468.00
2019-03-23T10:54:35.112Z,8748.00
2019-03-23T10:55:35.069Z,8852.00
2019-03-23T10:56:35.062Z,8896.00
2019-03-23T10:57:35.050Z,9012.00
2019-03-23T10:58:35.069Z,9172.00
2019-03-23T10:59:35.073Z,9300.00
2019-03-23T11:00:36.545Z,9320.00
2019-03-23T11:01:36.499Z,9160.00
2019-03-23T11:02:34.988Z,8976.00
2019-03-23T11:03:34.983Z,8920.00
2019-03-23T11:04:34.986Z,9100.00
2019-03-23T11:05:35.041Z,9296.00
2019-03-23T11:06:34.952Z,9312.00
2019-03-23T11:07:34.939Z,9296.00
2019-03-23T11:08:34.918Z,9248.00
2019-03-23T11:09:34.914Z,9236.00
2019-03-23T11:10:41.690Z,9212.00
2019-03-23T11:11:35.946Z,9092.00
2019-03-23T11:12:37.063Z,8932.00
2019-03-23T11:13:34.887Z,8816.00
2019-03-23T11:14:34.857Z,8792.00
2019-03-23T11:15:34.862Z,8828.00
2019-03-23T11:16:34.886Z,8928.00
2019-03-23T11:17:34.881Z,8984.00
2019-03-23T11:18:34.822Z,8984.00
2019-03-23T11:19:34.797Z,8960.00
2019-03-23T11:20:34.824Z,8984.00
2019-03-23T11:21:34.818Z,8968.00
2019-03-23T11:22:34.776Z,8884.00
2019-03-23T11:23:34.767Z,8832.00
2019-03-23T11:24:34.741Z,8892.00
2019-03-23T11:25:34.748Z,9032.00
2019-03-23T11:26:34.769Z,9176.00
2019-03-23T11:27:34.743Z,9356.00
2019-03-23T11:28:34.721Z,9512.00
2019-03-23T11:29:34.696Z,9596.00
2019-03-23T11:30:34.682Z,9536.00
2019-03-23T11:31:34.667Z,9500.00
2019-03-23T11:32:34.698Z,9528.00
2019-03-23T11:33:34.679Z,9408.00
2019-03-23T11:34:34.643Z,9188.00
2019-03-23T11:35:34.622Z,8948.00
2019-03-23T11:36:34.657Z,8732.00
2019-03-23T11:37:34.740Z,8636.00
2019-03-23T11:38:34.586Z,8592.00
2019-03-23T11:39:34.592Z,8440.00
2019-03-23T11:40:34.613Z,8328.00
2019-03-23T11:41:34.584Z,8388.00
2019-03-23T11:42:34.552Z,8512.00
2019-03-23T11:43:34.551Z,8556.00
2019-03-23T11:44:34.525Z,8500.00
2019-03-23T11:45:34.558Z,8424.00
2019-03-23T11:46:34.515Z,8416.00
2019-03-23T11:47:34.492Z,8384.00
2019-03-23T11:48:34.494Z,8212.00
2019-03-23T11:49:34.493Z,7992.00
2019-03-23T11:50:34.461Z,7836.00
2019-03-23T11:51:34.510Z,7808.00
2019-03-23T11:52:34.441Z,7788.00
2019-03-23T11:53:34.441Z,7684.00
2019-03-23T11:54:34.424Z,7616.00
2019-03-23T11:55:34.403Z,7644.00
2019-03-23T11:56:34.402Z,7704.00
2019-03-23T11:57:34.421Z,7656.00
2019-03-23T11:58:34.381Z,7384.00
2019-03-23T11:59:34.410Z,7104.00
2019-03-23T12:00:34.359Z,7028.00
2019-03-23T12:01:34.347Z,7216.00
2019-03-23T12:02:34.326Z,7484.00
2019-03-23T12:03:34.354Z,7576.00
2019-03-23T12:04:34.298Z,7496.00
2019-03-23T12:05:34.316Z,7436.00
2019-03-23T12:06:34.293Z,7300.00
2019-03-23T12:07:34.316Z,7148.00
2019-03-23T12:08:34.278Z,7060.00
2019-03-23T12:09:34.253Z,6916.00
2019-03-23T12:10:34.236Z,6728.00
2019-03-23T12:11:34.299Z,6592.00
2019-03-23T12:12:34.225Z,6592.00
2019-03-23T12:13:34.215Z,6696.00
2019-03-23T12:14:34.185Z,6820.00
2019-03-23T12:15:34.195Z,6776.00
2019-03-23T12:16:34.165Z,6616.00
2019-03-23T12:17:34.204Z,6412.00
2019-03-23T12:18:34.148Z,6280.00
2019-03-23T12:19:34.135Z,6228.00
2019-03-23T12:20:34.159Z,6192.00
2019-03-23T12:21:34.148Z,6180.00
2019-03-23T12:22:34.125Z,6260.00
2019-03-23T12:23:34.134Z,6364.00
2019-03-23T12:24:34.081Z,6376.00
2019-03-23T12:25:34.084Z,6284.00
2019-03-23T12:26:34.091Z,6240.00
2019-03-23T12:27:34.131Z,6224.00
2019-03-23T12:28:34.032Z,6172.00
2019-03-23T12:29:34.051Z,6120.00
2019-03-23T12:30:34.019Z,6144.00
2019-03-23T12:31:34.006Z,6296.00
2019-03-23T12:32:34.041Z,6452.00
2019-03-23T12:33:33.979Z,6556.00
2019-03-23T12:34:33.985Z,6520.00
2019-03-23T12:35:33.999Z,6364.00
2019-03-23T12:36:33.948Z,6232.00
2019-03-23T12:37:33.967Z,6180.00
2019-03-23T12:38:33.982Z,6160.00